• Join FlightAware (Why Join?)
  • Login
  • US Flag 
10:05PM EDT


 

Airport Tracker/Info


-or-


 

Live Flight TrackerFlight Track Log ✈ DAL3865 ✈ 20-Apr-2013 ✈ KPIT - KDTW

Flight Track Log - Related Links

Times and Time Zones

All times are in EDT time to prevent confusion due to time zone crossing. See the DAL3865 flight status page for this flight to view local times or setup timezone preferences in your user account.

Time Position Orientation Groundspeed Altitude Reporting Facility
EDT Latitude Longitude Course Direction KTS MPH feet Rate Location/Type
03:37PM 40.5025 -80.3400 291° West 169 194 4,600  Level Cleveland Center
03:38PM 40.5111 -80.4192 278° West 185 213 7,000 2,700 Climbing Cleveland Center
03:39PM 40.5517 -80.5750 285° West  Level FlightAware Approximate
03:39PM 40.5319 -80.5039 288° West 217 250 10,100  Level Cleveland Center
03:40PM 40.5696 -80.6645 285° West  Level FlightAware Approximate
03:40PM 40.5528 -80.5994 286° West 248 285 11,800  Level Cleveland Center
03:41PM 40.5891 -80.7533 291° West  Level FlightAware Approximate
03:41PM 40.5778 -80.7033 288° West 278 320 13,500  Level Cleveland Center
03:42PM 40.6138 -80.8399 291° West  Level FlightAware Approximate
03:42PM 40.6028 -80.8072 288° West 297 342 15,200  Level Cleveland Center
03:43PM 40.6275 -80.9169 287° West 304 350 16,900 1,560 Climbing Cleveland Center
03:44PM 40.6500 -81.0208 286° West 304 350 18,400 1,500 Climbing Cleveland Center
03:45PM 40.6725 -81.1250 286° West 304 350 20,000 780 Climbing Cleveland Center
03:46PM 40.7053 -81.2186 295° West 304 350 20,000  Level Cleveland Center
03:47PM 40.7694 -81.3125 312° West 334 384 20,000  Level Cleveland Center
03:48PM 40.8394 -81.4175 311° West 359 413 20,000  Level Cleveland Center
03:49PM 40.9075 -81.5200 311° West 364 419 20,000  Level Cleveland Center
03:50PM 40.9775 -81.6228 312° West 369 425 20,000  Level Cleveland Center
03:51PM 41.0514 -81.7394 310° West 374 430 20,000  Level Cleveland Center
03:52PM 41.1192 -81.8428 311° West 374 430 20,000  Level Cleveland Center
03:53PM 41.1908 -81.9461 313° West 374 430 20,000  Level Cleveland Center
03:54PM 41.2564 -82.0442 312° West 369 425 20,000 -300 Level Cleveland Center
03:55PM 41.3114 -82.1367 308° West 340 391 19,500 -660 Descending Cleveland Center
03:56PM 41.3606 -82.2097 312° West 310 357 18,700 -780 Descending Cleveland Center
03:57PM 41.4114 -82.2914 310° West 286 329 18,000 -900 Descending Cleveland Center
03:58PM 41.4664 -82.3758 311° West 291 335 16,900 -1,080 Descending Cleveland Center
03:59PM 41.5214 -82.4608 311° West 296 341 15,900 -1,080 Descending Cleveland Center
03:59PM 41.5519 -82.5117 309° West 314 361 15,400 -1,020 Descending Cleveland Center
04:00PM 41.5761 -82.5483 311° West 302 348 14,900 -1,020 Descending Cleveland Center
04:00PM 41.6086 -82.6022 309° West 301 346 14,300 -1,020 Descending Cleveland Center
04:01PM 41.6331 -82.6361 314° West 302 348 13,900 -1,020 Descending Cleveland Center
04:01PM 41.6594 -82.6786 310° West 283 326 13,300 -900 Descending Cleveland Center
04:02PM 41.6797 -82.7100 311° West 289 333 13,000 -1,020 Descending Cleveland Center
04:02PM 41.7161 -82.7669 311° West 290 334 12,300 -1,020 Descending Cleveland Center
04:03PM 41.7322 -82.7897 313° West 289 333 12,000 -300 Descending Cleveland Center
04:03PM 41.7772 -82.8414 319° Northwest 290 334 12,000  Level Cleveland Center
04:04PM 41.7933 -82.8614 317° Northwest 289 333 12,000  Level Cleveland Center
04:04PM 41.8361 -82.9158 317° Northwest 290 334 12,000  Level Cleveland Center
04:05PM 41.8544 -82.9333 325° Northwest 289 333 12,000  Level Cleveland Center
04:05PM 41.8992 -82.9906 316° Northwest 301 346 12,000  Level Cleveland Center
04:06PM 41.9175 -83.0108 321° Northwest 294 338 12,000  Level Cleveland Center
04:06PM 41.9583 -83.0600 318° Northwest 306 352 12,000  Level Cleveland Center
04:07PM 41.9806 -83.0861 319° Northwest 299 344 12,000  Level Cleveland Center
04:07PM 42.0253 -83.1408 318° Northwest 310 357 12,000 -300 Level Cleveland Center
04:08PM 42.0436 -83.1639 317° Northwest 305 351 11,700 -900 Descending Cleveland Center
04:08PM 42.0864 -83.2047 325° Northwest 262 302 11,100 -900 Descending Cleveland Center
04:09PM 42.1133 -83.2144 345° North 279 321 10,800 -1,440 Descending Cleveland Center
04:09PM 42.1333 -83.2253 338° Northwest 243 280 10,100 -2,520 Descending FAA TRACON SMA TRACON (SMA)
04:09PM 42.1522 -83.2347 340° North 240 276 9,300 -2,160 Descending FAA TRACON SMA TRACON (SMA)
04:10PM 42.1725 -83.2306 North 248 285 8,700 -1,260 Descending FAA TRACON SMA TRACON (SMA)
04:10PM 42.1911 -83.2203 22° Northeast 241 277 8,500 -600 Descending FAA TRACON SMA TRACON (SMA)
04:10PM 42.2119 -83.2078 24° Northeast 214 246 8,300 -480 Descending FAA TRACON SMA TRACON (SMA)
04:11PM 42.2283 -83.1981 24° Northeast 209 241 8,200 -480 Descending FAA TRACON SMA TRACON (SMA)
04:11PM 42.2444 -83.1889 23° Northeast 206 237 8,000 -1,080 Descending FAA TRACON SMA TRACON (SMA)
04:11PM 42.2650 -83.1769 23° Northeast 209 241 7,500 -1,080 Descending FAA TRACON SMA TRACON (SMA)
04:12PM 42.2806 -83.1681 23° Northeast 208 239 7,300 -900 Descending FAA TRACON SMA TRACON (SMA)
04:12PM 42.3011 -83.1572 21° North 207 238 6,900 -1,080 Descending FAA TRACON SMA TRACON (SMA)
04:12PM 42.3181 -83.1486 21° North 212 244 6,600 -1,080 Descending FAA TRACON SMA TRACON (SMA)
04:13PM 42.3353 -83.1400 20° North 213 245 6,200 -1,080 Descending FAA TRACON SMA TRACON (SMA)
04:13PM 42.3567 -83.1292 21° North 213 245 5,900 -1,080 Descending FAA TRACON SMA TRACON (SMA)
04:13PM 42.3739 -83.1261 North 196 226 5,500 -1,200 Descending FAA TRACON SMA TRACON (SMA)
04:14PM 42.3894 -83.1419 323° Northwest 175 201 5,100 -780 Descending FAA TRACON SMA TRACON (SMA)
04:14PM 42.3989 -83.1550 314° West 162 186 5,000 -180 Descending FAA TRACON SMA TRACON (SMA)
04:14PM 42.3997 -83.1761 273° West 159 183 5,000 -660 Level FAA TRACON SMA TRACON (SMA)
04:15PM 42.3931 -83.1894 236° Southwest 159 183 4,600 -1,200 Descending FAA TRACON SMA TRACON (SMA)
04:15PM 42.3839 -83.2086 237° Southwest 161 185 4,200 -1,200 Descending FAA TRACON SMA TRACON (SMA)
04:15PM 42.3736 -83.2197 219° Southwest 163 188 3,800 -1,080 Descending FAA TRACON SMA TRACON (SMA)
04:16PM 42.3592 -83.2303 208° Southwest 164 189 3,500 -1,080 Descending FAA TRACON SMA TRACON (SMA)
04:16PM 42.3450 -83.2422 212° Southwest 169 194 3,100 -780 Descending FAA TRACON SMA TRACON (SMA)
04:16PM 42.3322 -83.2511 207° Southwest 170 196 3,000 -180 Descending FAA TRACON SMA TRACON (SMA)
04:17PM 42.3178 -83.2617 208° Southwest 163 188 3,000 -480 Level FAA TRACON SMA TRACON (SMA)
04:17PM 42.3042 -83.2722 210° Southwest 164 189 2,700 -900 Descending FAA TRACON SMA TRACON (SMA)
04:17PM 42.2928 -83.2803 208° Southwest 148 170 2,400 -900 Descending FAA TRACON SMA TRACON (SMA)